Time;durP1;ratioP1;P1;durP2;ratioP2;P2;SDS_P1;SDS_P2;PMS_P1;PMS_P2;Temp;Humidity;BMP_temperature;BMP_pressure;BME280_temperature;BME280_humidity;BME280_pressure;Samples;Min_cycle;Max_cycle;Signal;HPM_P1;HPM_P2
2022/05/12 00:00:50;;;;;;;9.98;7.07;;;17.70;99.90;;;;;;5018282;28;20052;-78
2022/05/12 00:03:36;;;;;;;15.80;7.18;;;17.50;99.90;;;;;;5003496;28;20049;-81
2022/05/12 00:06:25;;;;;;;11.68;6.70;;;17.60;99.90;;;;;;5018465;28;20160;-79
2022/05/12 00:09:12;;;;;;;14.63;7.38;;;17.50;99.90;;;;;;5017956;28;20125;-83
2022/05/12 00:12:00;;;;;;;12.43;7.38;;;17.40;99.90;;;;;;5018708;28;20040;-81
2022/05/12 00:14:47;;;;;;;18.13;7.45;;;17.50;99.90;;;;;;5015532;28;20077;-84
2022/05/12 00:17:33;;;;;;;15.18;7.07;;;17.40;99.90;;;;;;5015787;28;20060;-81
2022/05/12 00:20:21;;;;;;;14.45;7.07;;;17.20;99.90;;;;;;5002452;28;20054;-81
2022/05/12 00:23:18;;;;;;;11.77;7.72;;;17.20;99.90;;;;;;4996618;28;20105;-80
2022/05/12 00:26:03;;;;;;;11.45;7.28;;;17.20;99.90;;;;;;4996164;28;20101;-83
2022/05/12 00:28:50;;;;;;;14.70;6.88;;;17.10;99.90;;;;;;4994636;28;20061;-80
2022/05/12 00:31:42;;;;;;;13.68;7.43;;;17.30;99.90;;;;;;4995632;28;20061;-82
2022/05/12 00:34:28;;;;;;;14.15;7.35;;;17.30;99.90;;;;;;4994782;28;20108;-81
2022/05/12 00:37:14;;;;;;;17.10;6.97;;;17.00;99.90;;;;;;4995648;28;20077;-83
2022/05/12 00:40:00;;;;;;;13.02;7.47;;;16.80;99.90;;;;;;4995544;28;20413;-83
2022/05/12 00:43:01;;;;;;;10.55;6.68;;;16.90;99.90;;;;;;4995537;28;20057;-84
2022/05/12 00:45:49;;;;;;;12.13;7.65;;;16.80;99.90;;;;;;4994279;28;20178;-80
2022/05/12 00:48:35;;;;;;;11.73;7.63;;;16.70;99.90;;;;;;4980659;28;20132;-79
2022/05/12 00:51:28;;;;;;;13.93;6.93;;;16.70;99.90;;;;;;4980836;28;20121;-78
2022/05/12 00:54:25;;;;;;;8.63;6.35;;;16.70;99.90;;;;;;4994804;28;20085;-81
2022/05/12 00:57:15;;;;;;;12.80;6.68;;;16.70;99.90;;;;;;4994964;28;20137;-81
2022/05/12 01:00:05;;;;;;;13.30;7.30;;;16.70;99.90;;;;;;4995513;28;20045;-79
2022/05/12 01:02:56;;;;;;;11.20;7.32;;;16.70;99.90;;;;;;4980796;28;20053;-80
2022/05/12 01:05:42;;;;;;;14.98;8.00;;;16.70;99.90;;;;;;4994387;28;20049;-80
2022/05/12 01:08:29;;;;;;;11.02;6.60;;;16.80;99.90;;;;;;4994998;28;20065;-80
2022/05/12 01:11:18;;;;;;;11.57;6.93;;;16.80;99.90;;;;;;4994835;28;20125;-80
2022/05/12 01:14:06;;;;;;;15.43;7.15;;;16.60;99.90;;;;;;4994610;28;20144;-81
2022/05/12 01:16:54;;;;;;;10.43;6.53;;;16.50;99.90;;;;;;4994836;28;20068;-80
2022/05/12 01:19:43;;;;;;;13.68;6.88;;;16.60;99.90;;;;;;4994788;28;20065;-80
2022/05/12 01:22:51;;;;;;;11.45;7.35;;;16.20;99.90;;;;;;4994081;28;20060;-79
2022/05/12 01:25:37;;;;;;;11.65;6.85;;;16.10;99.90;;;;;;4992943;28;20069;-80
2022/05/12 01:28:23;;;;;;;11.57;6.70;;;16.40;99.90;;;;;;4994712;28;20062;-78
2022/05/12 01:31:16;;;;;;;10.27;7.20;;;16.30;99.90;;;;;;4993938;28;20049;-80
2022/05/12 01:34:04;;;;;;;10.52;7.10;;;16.10;99.90;;;;;;4994528;28;20060;-80
2022/05/12 01:36:49;;;;;;;9.90;6.63;;;16.20;99.90;;;;;;4994651;28;20117;-80
2022/05/12 01:39:36;;;;;;;12.48;7.00;;;16.30;99.90;;;;;;4993118;28;20540;-78
2022/05/12 01:42:23;;;;;;;9.98;7.15;;;16.10;99.90;;;;;;4993702;28;20065;-80
2022/05/12 01:45:10;;;;;;;8.65;6.00;;;16.10;99.90;;;;;;4994667;28;20041;-78
2022/05/12 01:47:56;;;;;;;10.73;6.15;;;16.00;99.90;;;;;;4995006;28;20415;-81
2022/05/12 01:50:44;;;;;;;12.95;6.50;;;16.00;99.90;;;;;;4993842;28;20053;-80
2022/05/12 01:53:31;;;;;;;9.60;6.80;;;15.90;99.90;;;;;;4993878;28;20450;-79
2022/05/12 01:56:17;;;;;;;11.95;7.05;;;16.00;99.90;;;;;;4993971;28;20510;-80
2022/05/12 01:59:03;;;;;;;10.90;6.35;;;16.00;99.90;;;;;;4994410;28;20041;-80
2022/05/12 02:01:50;;;;;;;8.20;6.30;;;15.90;99.90;;;;;;4993952;28;20053;-80
2022/05/12 02:04:36;;;;;;;9.70;6.53;;;15.90;99.90;;;;;;4993501;28;20057;-80
2022/05/12 02:07:22;;;;;;;10.55;6.60;;;15.80;99.90;;;;;;4994430;28;20142;-82
2022/05/12 02:10:11;;;;;;;10.80;6.70;;;15.70;99.90;;;;;;4993829;28;20053;-81
2022/05/12 02:12:57;;;;;;;11.25;7.07;;;15.70;99.90;;;;;;4992646;28;20053;-79
2022/05/12 02:15:44;;;;;;;13.50;6.70;;;15.80;99.90;;;;;;4993996;28;20057;-79
2022/05/12 02:18:30;;;;;;;16.80;7.22;;;15.70;99.90;;;;;;4993617;28;20041;-80
2022/05/12 02:21:17;;;;;;;9.80;7.32;;;15.70;99.90;;;;;;4993184;28;20413;-80
2022/05/12 02:24:04;;;;;;;10.57;7.32;;;15.70;99.90;;;;;;4993691;28;20057;-79
2022/05/12 02:26:53;;;;;;;13.57;7.20;;;15.50;99.90;;;;;;4993690;28;20409;-78
2022/05/12 02:29:39;;;;;;;11.13;7.22;;;15.70;99.90;;;;;;4992298;28;20402;-81
2022/05/12 02:32:27;;;;;;;11.68;7.15;;;15.70;99.90;;;;;;4993807;28;20104;-82
2022/05/12 02:35:13;;;;;;;8.85;7.30;;;15.70;99.90;;;;;;4993115;28;20065;-80
2022/05/12 02:37:59;;;;;;;11.57;8.20;;;15.60;99.90;;;;;;4978135;28;20120;-79
2022/05/12 02:40:45;;;;;;;13.77;8.13;;;15.50;99.90;;;;;;4993368;28;20577;-80
2022/05/12 02:43:31;;;;;;;11.55;6.93;;;15.60;99.90;;;;;;4992249;28;20133;-80
2022/05/12 02:46:17;;;;;;;10.60;7.22;;;15.60;99.90;;;;;;4993054;28;20513;-81
2022/05/12 02:49:03;;;;;;;12.85;7.75;;;15.50;99.90;;;;;;4993248;28;20181;-79
2022/05/12 02:51:49;;;;;;;10.30;6.97;;;15.30;99.90;;;;;;4992920;28;20060;-80
2022/05/12 02:54:36;;;;;;;12.70;6.90;;;15.30;99.90;;;;;;4993329;28;20061;-81
2022/05/12 02:57:22;;;;;;;10.95;7.50;;;15.30;99.90;;;;;;4993233;28;20044;-79
2022/05/12 03:00:12;;;;;;;11.00;7.43;;;15.40;99.90;;;;;;4978381;28;20062;-79
2022/05/12 03:02:59;;;;;;;13.15;7.78;;;15.50;99.90;;;;;;4992119;28;20114;-80
2022/05/12 03:05:45;;;;;;;12.48;6.93;;;15.20;99.90;;;;;;4993177;28;20074;-81
2022/05/12 03:08:31;;;;;;;12.27;7.68;;;15.30;99.90;;;;;;4992944;28;20057;-80
2022/05/12 03:11:17;;;;;;;9.98;7.20;;;15.30;99.90;;;;;;4993462;28;20053;-79
2022/05/12 03:14:03;;;;;;;11.80;6.88;;;15.30;99.90;;;;;;4991745;28;20053;-82
2022/05/12 03:16:53;;;;;;;9.45;6.78;;;15.40;99.90;;;;;;4993068;28;20050;-82
2022/05/12 03:19:40;;;;;;;10.37;6.97;;;15.30;99.90;;;;;;4978287;28;20048;-80
2022/05/12 03:22:27;;;;;;;9.30;7.03;;;15.20;99.90;;;;;;4992726;28;20522;-82
2022/05/12 03:25:14;;;;;;;9.75;7.10;;;15.30;99.90;;;;;;4993015;28;20105;-81
2022/05/12 03:28:00;;;;;;;12.73;7.18;;;15.10;99.90;;;;;;4993395;28;20150;-81
2022/05/12 03:30:47;;;;;;;10.05;7.35;;;15.20;99.90;;;;;;4992044;28;20088;-81
2022/05/12 03:33:37;;;;;;;11.77;7.15;;;15.20;99.90;;;;;;4992015;28;20179;-81
2022/05/12 03:36:23;;;;;;;10.07;7.10;;;14.90;99.90;;;;;;4978433;28;20056;-80
2022/05/12 03:39:09;;;;;;;13.68;7.57;;;15.20;99.90;;;;;;4991862;28;20102;-80
2022/05/12 03:41:56;;;;;;;10.30;6.88;;;15.40;99.90;;;;;;4991748;28;20146;-81
2022/05/12 03:44:58;;;;;;;10.00;7.07;;;15.40;99.90;;;;;;4993504;28;20781;-79
2022/05/12 03:47:48;;;;;;;11.50;7.35;;;15.50;99.90;;;;;;4992546;28;20102;-81
2022/05/12 03:50:36;;;;;;;12.63;7.88;;;15.50;99.90;;;;;;4996439;28;20125;-83
2022/05/12 03:53:25;;;;;;;13.85;8.93;;;15.40;99.90;;;;;;4995490;28;20085;-82
2022/05/12 03:56:11;;;;;;;13.80;7.00;;;15.20;99.90;;;;;;4981736;28;20073;-81
2022/05/12 03:58:57;;;;;;;10.23;7.35;;;15.20;99.90;;;;;;4996356;28;20516;-82
2022/05/12 04:01:43;;;;;;;9.95;7.20;;;15.30;99.90;;;;;;4981460;28;20053;-78
2022/05/12 04:04:30;;;;;;;12.65;7.07;;;15.20;99.90;;;;;;4995030;28;20046;-81
2022/05/12 04:07:20;;;;;;;11.07;7.22;;;15.30;99.90;;;;;;4996190;28;20134;-81
2022/05/12 04:10:06;;;;;;;10.52;7.18;;;15.40;99.90;;;;;;4995814;28;20049;-79
2022/05/12 04:12:52;;;;;;;13.65;7.10;;;15.50;99.90;;;;;;4980374;28;20418;-78
2022/05/12 04:15:49;;;;;;;10.52;7.28;;;15.50;99.90;;;;;;4994726;28;20054;-80
2022/05/12 04:18:35;;;;;;;12.18;7.32;;;15.40;99.90;;;;;;4981335;28;20081;-79
2022/05/12 04:21:21;;;;;;;17.08;8.60;;;15.40;99.90;;;;;;4994810;28;20053;-81
2022/05/12 04:24:08;;;;;;;12.30;8.02;;;15.50;99.90;;;;;;4994767;28;20061;-79
2022/05/12 04:26:54;;;;;;;13.77;8.50;;;15.50;99.90;;;;;;4995971;28;20049;-80
2022/05/12 04:29:42;;;;;;;17.05;8.23;;;15.70;99.90;;;;;;4995734;28;20394;-79
2022/05/12 04:32:28;;;;;;;11.85;7.45;;;15.40;99.90;;;;;;4995288;28;20142;-80
2022/05/12 04:35:14;;;;;;;8.70;6.60;;;15.30;99.90;;;;;;4995086;28;20441;-81
2022/05/12 04:38:00;;;;;;;57.33;37.17;;;15.20;99.90;;;;;;4995688;28;20517;-81
2022/05/12 04:40:51;;;;;;;50.78;31.33;;;15.50;99.90;;;;;;4993897;28;20090;-77
2022/05/12 04:43:37;;;;;;;40.90;26.40;;;15.90;99.90;;;;;;4975240;28;20062;-80
2022/05/12 04:46:24;;;;;;;32.60;21.67;;;16.10;99.90;;;;;;4975725;28;20141;-78
2022/05/12 04:49:11;;;;;;;14.50;9.93;;;16.10;99.90;;;;;;4975505;28;20697;-78
2022/05/12 04:52:01;;;;;;;11.95;7.85;;;15.90;99.90;;;;;;4975035;28;20545;-77
2022/05/12 04:54:47;;;;;;;15.53;7.60;;;15.70;99.90;;;;;;4975607;28;20062;-79
2022/05/12 04:57:38;;;;;;;13.35;7.43;;;15.80;99.90;;;;;;4961120;28;20316;-79
2022/05/12 05:00:29;;;;;;;12.82;7.97;;;15.70;99.90;;;;;;4975100;28;20066;-79
2022/05/12 05:03:16;;;;;;;12.85;7.70;;;15.70;99.90;;;;;;4975166;28;20562;-83
2022/05/12 05:06:04;;;;;;;42.00;25.80;;;15.50;99.90;;;;;;4975574;28;20502;-80
2022/05/12 05:08:51;;;;;;;179.57;113.80;;;15.70;99.90;;;;;;4975596;28;20061;-78
2022/05/12 05:11:37;;;;;;;301.98;177.70;;;15.70;99.90;;;;;;4960714;28;20419;-82
2022/05/12 05:14:24;;;;;;;67.07;45.17;;;16.00;99.90;;;;;;4961011;28;20054;-81
2022/05/12 05:17:11;;;;;;;74.00;48.95;;;16.10;99.90;;;;;;4960447;28;20046;-81
2022/05/12 05:19:57;;;;;;;66.30;42.50;;;16.10;99.90;;;;;;4976256;28;20137;-83
2022/05/12 05:22:44;;;;;;;19.13;12.90;;;16.00;99.90;;;;;;4994511;28;20143;-83
2022/05/12 05:25:38;;;;;;;26.92;9.23;;;16.10;99.90;;;;;;4994064;28;20097;-82
2022/05/12 05:28:25;;;;;;;15.95;8.93;;;16.10;99.90;;;;;;4993340;28;20049;-82
2022/05/12 05:31:11;;;;;;;14.77;7.88;;;16.00;99.90;;;;;;4993355;28;20255;-83
2022/05/12 05:33:57;;;;;;;12.65;7.70;;;16.20;99.90;;;;;;4992634;28;20069;-82
2022/05/12 05:36:45;;;;;;;13.15;8.10;;;16.10;99.90;;;;;;4979619;28;20524;-82
2022/05/12 05:39:30;;;;;;;12.85;8.23;;;16.30;99.90;;;;;;4978487;28;20049;-82
2022/05/12 05:42:32;;;;;;;11.80;8.52;;;16.30;99.90;;;;;;4990134;28;20193;-83
2022/05/12 05:45:18;;;;;;;18.20;8.70;;;16.30;99.90;;;;;;4989026;28;20457;-83
2022/05/12 05:48:05;;;;;;;12.57;7.90;;;16.30;99.90;;;;;;4990215;28;20058;-82
2022/05/12 05:53:55;;;;;;;15.95;8.88;;;16.70;99.90;;;;;;4990841;28;20790;-84
2022/05/12 05:56:42;;;;;;;14.48;8.98;;;16.80;99.90;;;;;;4992903;28;20109;-83
2022/05/12 05:59:31;;;;;;;14.77;8.73;;;16.70;99.90;;;;;;4976874;28;20065;-82
2022/05/12 06:02:19;;;;;;;12.23;9.55;;;16.70;99.90;;;;;;4990430;28;20058;-82
2022/05/12 06:05:06;;;;;;;15.48;8.35;;;16.90;99.90;;;;;;4990482;28;20474;-83
2022/05/12 06:07:54;;;;;;;14.85;8.30;;;17.10;99.90;;;;;;4975915;28;20418;-83
2022/05/12 06:10:44;;;;;;;12.75;8.18;;;17.10;99.90;;;;;;4992117;28;20053;-83
2022/05/12 06:13:33;;;;;;;14.55;8.40;;;16.90;99.90;;;;;;4990750;28;20049;-82
2022/05/12 06:16:20;;;;;;;15.13;8.77;;;16.80;99.90;;;;;;4990553;28;20162;-83
2022/05/12 06:19:06;;;;;;;12.07;8.43;;;17.00;99.90;;;;;;4989593;28;20593;-82
2022/05/12 06:21:51;;;;;;;15.32;8.32;;;17.00;99.90;;;;;;4989497;28;20038;-83
2022/05/12 06:24:38;;;;;;;18.00;9.23;;;17.00;99.90;;;;;;4990373;28;20520;-81
2022/05/12 06:27:25;;;;;;;14.13;8.63;;;17.00;99.90;;;;;;4993334;28;20612;-83
2022/05/12 06:30:11;;;;;;;14.25;7.72;;;17.20;99.90;;;;;;4991600;28;20049;-82
2022/05/12 06:32:58;;;;;;;17.25;10.52;;;17.40;99.90;;;;;;4992634;28;20053;-83
2022/05/12 06:35:44;;;;;;;16.63;11.05;;;17.60;99.90;;;;;;4993034;28;20140;-85
2022/05/12 06:38:34;;;;;;;14.18;9.13;;;18.00;99.90;;;;;;4992620;28;20608;-82
2022/05/12 06:41:20;;;;;;;12.15;7.38;;;17.80;99.90;;;;;;4992617;28;20113;-85
2022/05/12 06:44:06;;;;;;;11.63;7.95;;;17.70;99.90;;;;;;4992003;28;20077;-81
2022/05/12 06:46:53;;;;;;;17.42;8.20;;;17.70;99.90;;;;;;4992669;28;20061;-82
2022/05/12 06:49:39;;;;;;;12.90;7.47;;;17.80;99.90;;;;;;4992589;28;20205;-81
2022/05/12 06:52:26;;;;;;;11.93;7.45;;;17.80;99.90;;;;;;4992706;28;20105;-82
2022/05/12 06:55:12;;;;;;;12.13;7.80;;;17.80;99.90;;;;;;4992545;28;20064;-82
2022/05/12 06:57:58;;;;;;;11.93;7.70;;;18.00;99.90;;;;;;4991518;28;20136;-82
2022/05/12 07:00:45;;;;;;;14.05;7.32;;;18.00;99.90;;;;;;4991836;28;20565;-82
2022/05/12 07:03:31;;;;;;;16.25;8.25;;;18.00;99.90;;;;;;4991872;28;20124;-81
2022/05/12 07:06:17;;;;;;;13.88;8.15;;;18.20;99.90;;;;;;4992815;28;20049;-80
2022/05/12 07:09:03;;;;;;;17.38;7.60;;;18.30;99.90;;;;;;4992120;28;20045;-81
2022/05/12 07:11:49;;;;;;;13.02;7.68;;;18.50;99.90;;;;;;4992596;28;20058;-81
2022/05/12 07:14:35;;;;;;;14.60;8.05;;;18.30;99.90;;;;;;4990987;28;20053;-81
2022/05/12 07:17:22;;;;;;;12.85;7.78;;;18.30;99.90;;;;;;4992363;28;20170;-81
2022/05/12 07:26:53;;;;;;;14.90;7.18;;;18.60;99.90;;;;;;4984564;28;20105;-78
2022/05/12 07:29:39;;;;;;;13.57;6.95;;;18.70;99.90;;;;;;4995278;28;20060;-80
2022/05/12 07:32:25;;;;;;;13.15;7.28;;;18.70;99.90;;;;;;4995961;28;20049;-81
2022/05/12 07:35:13;;;;;;;12.60;7.05;;;18.70;99.90;;;;;;4996302;28;20081;-82
2022/05/12 07:37:58;;;;;;;12.95;6.97;;;18.90;99.90;;;;;;4995927;28;20097;-82
2022/05/12 07:40:44;;;;;;;9.57;6.80;;;18.90;99.90;;;;;;4994615;28;20058;-80
2022/05/12 07:43:31;;;;;;;10.70;6.25;;;18.90;99.90;;;;;;4992958;28;20129;-80
2022/05/12 07:46:21;;;;;;;10.75;6.60;;;18.90;99.90;;;;;;4991619;28;20046;-80
2022/05/12 07:49:07;;;;;;;15.17;6.53;;;19.10;99.90;;;;;;4992838;28;20170;-79
2022/05/12 07:51:53;;;;;;;10.60;6.20;;;19.20;99.90;;;;;;4996020;28;20272;-80
2022/05/12 07:54:41;;;;;;;11.20;6.28;;;19.40;99.90;;;;;;4976157;28;20418;-80
2022/05/12 07:57:27;;;;;;;11.40;6.18;;;19.40;99.90;;;;;;4975616;28;20101;-79
2022/05/12 08:00:14;;;;;;;10.55;6.25;;;19.50;99.90;;;;;;4993103;28;20089;-82
2022/05/12 08:03:00;;;;;;;12.13;6.53;;;19.30;99.80;;;;;;4995279;28;20065;-80
2022/05/12 08:05:46;;;;;;;12.93;6.82;;;19.40;99.90;;;;;;4995485;28;20480;-81
2022/05/12 08:08:33;;;;;;;16.50;7.53;;;19.60;99.90;;;;;;4994881;28;20074;-81
2022/05/12 08:11:20;;;;;;;16.92;6.60;;;19.90;99.90;;;;;;4995820;28;20060;-78
2022/05/12 08:14:06;;;;;;;13.95;9.15;;;20.00;99.90;;;;;;4995077;28;20097;-80
2022/05/12 08:16:52;;;;;;;12.15;6.22;;;20.10;99.90;;;;;;4995347;28;20165;-82
2022/05/12 08:19:38;;;;;;;10.98;6.70;;;20.30;99.20;;;;;;4993863;28;20056;-80
2022/05/12 08:22:24;;;;;;;14.50;5.90;;;20.30;98.90;;;;;;4995082;28;20193;-81
2022/05/12 08:25:11;;;;;;;10.85;5.82;;;20.20;98.00;;;;;;4994880;28;20041;-79
2022/05/12 08:27:57;;;;;;;12.73;5.47;;;20.30;98.00;;;;;;4995661;28;20061;-82
2022/05/12 08:30:44;;;;;;;9.93;6.40;;;20.40;97.50;;;;;;4994618;28;20141;-82
2022/05/12 08:33:30;;;;;;;12.50;5.45;;;20.50;98.10;;;;;;4994054;28;20609;-81
2022/05/12 08:36:16;;;;;;;12.23;6.22;;;20.60;96.80;;;;;;4994925;28;20057;-81
2022/05/12 08:39:03;;;;;;;8.32;5.55;;;20.60;97.00;;;;;;4994678;28;20556;-81
2022/05/12 08:42:01;;;;;;;15.13;6.53;;;20.70;97.20;;;;;;4994200;28;20053;-82
2022/05/12 08:44:48;;;;;;;10.00;5.78;;;20.70;97.00;;;;;;4994796;28;20529;-81
2022/05/12 08:47:42;;;;;;;11.35;5.75;;;20.80;96.50;;;;;;4992740;28;20053;-82
2022/05/12 08:50:32;;;;;;;11.38;5.18;;;20.60;96.00;;;;;;4993397;28;20449;-82
2022/05/12 08:53:22;;;;;;;10.05;5.53;;;20.60;96.10;;;;;;4992820;28;20098;-81
2022/05/12 08:56:13;;;;;;;8.80;5.05;;;21.00;95.70;;;;;;4991911;28;20057;-81
2022/05/12 08:59:02;;;;;;;9.20;4.80;;;21.10;94.10;;;;;;4992542;28;20072;-80
2022/05/12 09:02:24;;;;;;;10.13;4.90;;;21.20;92.10;;;;;;4992292;28;20058;-81
2022/05/12 09:05:13;;;;;;;10.35;5.07;;;21.40;91.50;;;;;;4993296;28;20061;-81
2022/05/12 09:08:21;;;;;;;7.32;4.75;;;21.60;91.40;;;;;;4994532;28;20053;-82
2022/05/12 09:11:19;;;;;;;11.90;5.20;;;21.60;91.80;;;;;;4994124;28;20394;-81
2022/05/12 09:14:10;;;;;;;7.40;4.55;;;21.70;91.40;;;;;;4994098;28;20053;-81
2022/05/12 09:16:56;;;;;;;12.95;6.55;;;21.80;90.80;;;;;;4993426;28;20501;-80
2022/05/12 09:19:42;;;;;;;8.90;4.78;;;21.70;90.20;;;;;;4995318;28;20053;-81
2022/05/12 09:22:30;;;;;;;8.48;5.05;;;21.70;89.90;;;;;;4979170;28;20049;-81
2022/05/12 09:25:37;;;;;;;9.70;5.03;;;21.80;90.20;;;;;;4994254;28;20050;-81
2022/05/12 09:28:39;;;;;;;7.93;4.95;;;22.10;90.00;;;;;;4994546;28;20402;-81
2022/05/12 09:31:25;;;;;;;8.23;5.90;;;22.30;88.50;;;;;;4992909;28;20041;-82
2022/05/12 09:34:39;;;;;;;9.18;6.13;;;22.10;89.40;;;;;;4993580;28;20060;-81
2022/05/12 09:37:27;;;;;;;9.70;4.82;;;22.20;89.60;;;;;;4994049;28;20536;-82
2022/05/12 09:40:20;;;;;;;9.85;5.32;;;22.20;86.60;;;;;;4992556;28;20429;-80
2022/05/12 09:43:29;;;;;;;8.98;5.15;;;22.40;86.70;;;;;;4993759;28;20061;-80
2022/05/12 09:46:32;;;;;;;8.20;5.22;;;22.70;89.10;;;;;;4992427;28;20053;-80
2022/05/12 09:49:21;;;;;;;8.75;5.00;;;22.80;88.50;;;;;;4992235;28;20053;-80
2022/05/12 09:52:31;;;;;;;9.80;4.60;;;23.10;86.80;;;;;;4991476;28;20050;-79
2022/05/12 09:55:39;;;;;;;6.65;4.53;;;23.20;85.70;;;;;;4989431;28;20193;-81
2022/05/12 09:58:36;;;;;;;11.55;5.07;;;23.10;82.50;;;;;;4976560;28;20080;-79
2022/05/12 10:01:50;;;;;;;8.93;5.05;;;22.90;81.50;;;;;;4991570;28;20185;-79
2022/05/12 10:08:19;;;;;;;9.88;4.10;;;23.20;80.20;;;;;;4999312;28;20048;-79
2022/05/12 10:11:08;;;;;;;8.68;5.20;;;23.70;80.80;;;;;;5012430;28;20544;-79
2022/05/12 10:13:59;;;;;;;7.50;4.53;;;23.70;82.20;;;;;;5012243;28;20052;-79
2022/05/12 10:16:46;;;;;;;11.43;5.68;;;23.90;84.40;;;;;;5011426;28;20068;-78
2022/05/12 10:19:33;;;;;;;9.43;5.35;;;24.20;80.90;;;;;;4997570;28;20176;-82
2022/05/12 10:22:29;;;;;;;13.20;6.28;;;24.50;80.50;;;;;;4972845;28;20054;-79
2022/05/12 10:25:17;;;;;;;9.93;5.15;;;24.70;80.20;;;;;;4973110;28;20054;-79
2022/05/12 10:28:23;;;;;;;7.28;4.07;;;24.50;78.60;;;;;;4987985;28;20049;-80
2022/05/12 10:31:18;;;;;;;8.05;4.38;;;24.40;78.60;;;;;;4992121;28;20205;-82
2022/05/12 10:34:30;;;;;;;5.82;3.80;;;24.40;77.80;;;;;;4992327;28;20407;-79
2022/05/12 10:37:49;;;;;;;6.85;4.30;;;24.50;75.60;;;;;;4991585;28;20144;-81
2022/05/12 10:40:53;;;;;;;6.47;3.70;;;24.60;74.80;;;;;;4991783;28;20141;-80
2022/05/12 10:43:39;;;;;;;6.28;3.80;;;24.60;72.90;;;;;;4992357;28;20057;-78
2022/05/12 10:46:34;;;;;;;8.48;4.25;;;24.70;72.00;;;;;;4992732;28;20182;-81
2022/05/12 10:49:37;;;;;;;10.60;3.90;;;24.80;73.70;;;;;;4977872;28;20484;-78
2022/05/12 10:52:37;;;;;;;8.20;4.05;;;24.80;73.70;;;;;;4992455;28;20053;-78
2022/05/12 10:55:29;;;;;;;11.10;4.78;;;25.20;71.90;;;;;;4992429;28;20065;-77
2022/05/12 10:58:37;;;;;;;9.02;5.00;;;25.00;72.40;;;;;;4991704;28;20049;-77
2022/05/12 11:01:46;;;;;;;14.95;4.55;;;25.10;74.30;;;;;;4992162;28;20057;-76
2022/05/12 11:04:47;;;;;;;8.85;5.45;;;25.30;73.80;;;;;;4991967;28;20105;-76
2022/05/12 11:07:44;;;;;;;8.68;4.80;;;25.60;71.70;;;;;;4991996;28;20053;-74
2022/05/12 11:10:52;;;;;;;13.80;6.45;;;25.60;71.50;;;;;;4992212;28;20052;-75
2022/05/12 11:13:45;;;;;;;18.45;7.63;;;25.90;71.00;;;;;;4990654;28;20062;-76
2022/05/12 11:16:49;;;;;;;11.20;4.60;;;25.80;71.50;;;;;;4990118;28;20058;-75
2022/05/12 11:19:37;;;;;;;7.85;3.97;;;25.60;68.60;;;;;;4991019;28;20141;-84
2022/05/12 11:22:29;;;;;;;10.18;5.13;;;25.90;69.10;;;;;;4970829;28;20110;-80
2022/05/12 11:25:49;;;;;;;12.32;5.40;;;25.60;71.60;;;;;;4970672;28;20082;-81
2022/05/12 11:32:23;;;;;;;11.43;4.18;;;25.60;67.00;;;;;;4957652;28;20049;-81
2022/05/12 11:35:31;;;;;;;9.23;4.15;;;25.80;65.70;;;;;;4971209;28;20073;-83
2022/05/12 11:38:39;;;;;;;8.88;4.38;;;25.70;64.40;;;;;;4971847;28;20109;-83
2022/05/12 11:41:30;;;;;;;10.48;3.97;;;26.00;63.60;;;;;;4971547;28;20054;-78
2022/05/12 11:44:24;;;;;;;6.90;3.58;;;26.40;64.00;;;;;;4972177;28;20410;-79
2022/05/12 11:47:18;;;;;;;7.82;3.85;;;26.70;62.40;;;;;;4972403;28;20088;-79
2022/05/12 11:50:35;;;;;;;10.95;5.07;;;26.80;62.00;;;;;;4972237;28;20058;-81
2022/05/12 11:53:47;;;;;;;8.77;4.10;;;26.00;65.30;;;;;;4972210;28;20068;-80
2022/05/12 11:56:48;;;;;;;10.00;4.65;;;25.70;64.00;;;;;;4957652;28;20058;-83
2022/05/12 11:59:33;;;;;;;;;;;25.60;64.90;;;;;;4972891;28;20049;-84
2022/05/12 12:02:29;;;;;;;10.77;4.68;;;25.60;64.20;;;;;;4972086;28;20388;-79
2022/05/12 12:05:29;;;;;;;8.68;3.70;;;25.60;63.90;;;;;;4971355;28;20070;-78
2022/05/12 12:08:30;;;;;;;10.07;4.80;;;25.90;66.50;;;;;;4972664;28;20049;-87
2022/05/12 12:11:20;;;;;;;8.90;5.28;;;25.90;63.90;;;;;;4975754;28;20106;-81
2022/05/12 12:14:07;;;;;;;7.50;3.92;;;26.00;64.20;;;;;;4975154;28;20166;-80
2022/05/12 12:17:07;;;;;;;6.25;3.90;;;26.00;63.90;;;;;;4975821;28;20533;-78
2022/05/12 12:19:57;;;;;;;6.93;3.97;;;26.20;63.50;;;;;;4976136;28;20049;-80
2022/05/12 12:22:48;;;;;;;8.13;4.20;;;26.30;63.20;;;;;;4975374;28;20093;-83
2022/05/12 12:25:41;;;;;;;9.48;4.10;;;26.50;64.10;;;;;;4975782;28;20058;-85
2022/05/12 12:28:36;;;;;;;7.85;4.75;;;26.60;64.00;;;;;;4988331;28;20122;-85
2022/05/12 12:31:30;;;;;;;7.60;3.85;;;26.80;64.10;;;;;;4974846;28;20058;-80
2022/05/12 12:34:46;;;;;;;6.50;4.22;;;27.00;66.90;;;;;;4975209;28;20402;-87
2022/05/12 12:37:46;;;;;;;8.98;3.70;;;27.00;64.20;;;;;;4975678;28;20073;-80
2022/05/12 12:40:32;;;;;;;10.38;4.30;;;27.20;62.20;;;;;;4975323;28;20103;-81
2022/05/12 12:43:30;;;;;;;9.88;4.22;;;27.20;63.30;;;;;;4974682;28;20141;-82
2022/05/12 12:46:26;;;;;;;7.55;3.90;;;27.50;62.50;;;;;;4974977;28;20090;-84
2022/05/12 12:49:31;;;;;;;8.60;3.97;;;27.50;60.20;;;;;;4975518;28;20061;-84
2022/05/12 12:52:23;;;;;;;7.55;4.70;;;27.40;60.60;;;;;;4975077;28;20054;-84
2022/05/12 12:58:45;;;;;;;11.43;3.60;;;27.60;59.40;;;;;;4975167;28;20333;-86
2022/05/12 13:01:49;;;;;;;7.18;4.18;;;27.70;59.50;;;;;;4974804;28;20149;-85
2022/05/12 13:04:36;;;;;;;7.28;3.83;;;28.00;60.70;;;;;;4974897;28;20053;-81
2022/05/12 13:07:36;;;;;;;7.53;4.00;;;28.10;58.80;;;;;;4975186;28;20625;-76
2022/05/12 13:10:23;;;;;;;6.95;3.67;;;28.30;58.80;;;;;;4974527;28;20407;-76
2022/05/12 13:13:09;;;;;;;6.63;3.83;;;28.30;58.90;;;;;;4974909;28;20054;-78
2022/05/12 13:16:02;;;;;;;10.77;4.07;;;28.60;58.00;;;;;;4974387;28;20053;-81
2022/05/12 13:18:51;;;;;;;8.73;4.28;;;28.80;57.80;;;;;;4974639;28;20174;-81
2022/05/12 13:21:47;;;;;;;8.68;3.92;;;28.90;57.70;;;;;;4979167;28;20508;-84
2022/05/12 13:24:38;;;;;;;13.45;4.20;;;28.90;57.50;;;;;;4993647;28;20529;-81
2022/05/12 13:27:35;;;;;;;9.05;3.70;;;28.80;57.30;;;;;;4993880;28;20418;-85
2022/05/12 13:30:33;;;;;;;8.52;4.05;;;28.90;56.30;;;;;;4979774;28;20137;-80
2022/05/12 13:33:23;;;;;;;6.28;3.92;;;29.30;56.70;;;;;;4993579;28;20069;-83
2022/05/12 13:36:23;;;;;;;9.43;4.50;;;29.50;57.00;;;;;;4993792;28;20414;-81
2022/05/12 13:39:11;;;;;;;8.82;4.30;;;29.90;56.30;;;;;;4993223;28;20276;-81
2022/05/12 13:42:01;;;;;;;10.32;4.43;;;29.40;55.40;;;;;;4994167;28;20061;-84
2022/05/12 13:45:00;;;;;;;9.73;4.72;;;29.50;56.00;;;;;;4978614;28;20096;-80
2022/05/12 13:47:51;;;;;;;6.22;3.95;;;29.80;55.10;;;;;;4993510;28;20057;-82
2022/05/12 13:50:45;;;;;;;6.10;3.80;;;30.00;55.20;;;;;;4993140;28;20054;-82
2022/05/12 13:53:45;;;;;;;6.25;3.65;;;29.70;55.80;;;;;;4992470;28;20120;-83
2022/05/12 13:56:31;;;;;;;9.48;4.35;;;29.40;55.00;;;;;;4993349;28;20116;-79
2022/05/12 13:59:30;;;;;;;7.53;3.55;;;29.50;55.10;;;;;;4992720;28;20054;-80
2022/05/12 14:02:29;;;;;;;6.05;4.10;;;29.40;54.90;;;;;;4992786;28;20101;-80
2022/05/12 14:05:27;;;;;;;9.18;4.20;;;29.80;54.30;;;;;;4979422;28;20594;-79
2022/05/12 14:08:33;;;;;;;8.05;3.90;;;29.70;53.70;;;;;;4978541;28;20065;-80
2022/05/12 14:11:55;;;;;;;7.50;5.20;;;30.00;54.40;;;;;;4992093;28;20049;-80
2022/05/12 14:20:55;;;;;;;7.05;3.97;;;30.00;53.70;;;;;;4992966;28;20076;-80
2022/05/12 14:23:42;;;;;;;6.82;3.80;;;30.00;54.10;;;;;;4992481;28;20529;-82
2022/05/12 14:26:28;;;;;;;7.47;4.22;;;29.70;53.80;;;;;;4992850;28;20054;-78
2022/05/12 14:29:15;;;;;;;7.35;4.22;;;29.80;54.20;;;;;;4992091;28;20426;-76
2022/05/12 14:32:03;;;;;;;7.70;4.55;;;30.10;54.80;;;;;;4992144;28;20116;-74
2022/05/12 14:34:52;;;;;;;16.02;6.93;;;30.10;53.10;;;;;;4992362;28;20093;-78
2022/05/12 14:37:39;;;;;;;7.53;4.68;;;30.30;52.60;;;;;;4993025;28;20513;-81
2022/05/12 14:40:29;;;;;;;9.80;4.63;;;30.50;53.00;;;;;;4978196;28;20049;-80
2022/05/12 14:43:15;;;;;;;7.63;4.03;;;30.50;53.50;;;;;;4992350;28;20420;-81
2022/05/12 14:46:02;;;;;;;8.38;5.07;;;30.50;52.80;;;;;;4978206;28;20057;-79
2022/05/12 14:48:48;;;;;;;10.55;4.85;;;30.70;53.50;;;;;;4992259;28;20049;-78
2022/05/12 14:51:45;;;;;;;6.82;4.07;;;30.40;54.00;;;;;;4990527;28;20057;-80
2022/05/12 14:54:33;;;;;;;7.15;3.88;;;30.20;52.30;;;;;;4991966;28;20113;-79
2022/05/12 14:57:21;;;;;;;8.70;3.47;;;30.40;52.60;;;;;;4992208;28;20149;-82
2022/05/12 15:00:09;;;;;;;7.40;4.00;;;30.70;52.60;;;;;;4991328;28;20073;-83
2022/05/12 15:02:57;;;;;;;6.50;4.00;;;31.00;52.60;;;;;;4992090;28;20058;-78
2022/05/12 15:05:43;;;;;;;8.65;3.53;;;31.10;52.00;;;;;;4992975;28;20128;-84
2022/05/12 15:08:29;;;;;;;7.47;3.47;;;30.30;52.60;;;;;;4992351;28;20064;-86